DTTL

Kelibia Airport

Kelibia, Tunisia
METAR DTTL 190600Z VRB03KT CAVOK 27/23 Q1012
Observed Flight Rules
Jul-19 @ 06:00 UTC (2 hours ago) Visual Flight Rules
Wind Visibility Clouds
Variable at 3 knots 10,000+ meters
  • Clear skies
Temperatures Readings
Current 27°C / 81°F
Dewpoint 23°C / 73°F
Humidity 79%
Altimeter 29.88" Hg
Pressure 1012 hPa
Elevation 30
METAR DTTL 190600Z VRB03KT CAVOK 27/23 Q1012
Observed Flight Rules
Jul-19 @ 06:00 UTC
(2 hours ago)
VFR
Wind Visibility
Variable at 3 knots 10,000+ meters
Clouds
  • Clear skies
Temperature Dewpoint
27°C / 81°F 23°C / 73°F
Humidity Altimeter Pressure
79% 29.88" Hg 1012 hPa